Time;durP1;ratioP1;P1;durP2;ratioP2;P2;SDS_P1;SDS_P2;PMS_P1;PMS_P2;Temp;Humidity;BMP_temperature;BMP_pressure;BME280_temperature;BME280_humidity;BME280_pressure;Samples;Min_cycle;Max_cycle;Signal;HPM_P1;HPM_P2
2022/07/07 00:02:21;;;;;;;1.25;0.80;;;;;;;16.30;52.85;101171.05;1642861;86;21079;-79
2022/07/07 00:04:47;;;;;;;4.00;0.90;;;;;;;16.30;52.97;101165.37;1637045;87;21026;-79
2022/07/07 00:07:13;;;;;;;2.52;0.93;;;;;;;16.30;53.05;101157.55;1638090;86;21101;-79
2022/07/07 00:09:43;;;;;;;1.62;0.80;;;;;;;16.31;53.08;101156.64;1648194;86;21074;-79
2022/07/07 00:12:09;;;;;;;3.10;0.78;;;;;;;16.29;53.17;101157.59;1668976;84;21066;-79
2022/07/07 00:14:36;;;;;;;2.17;1.22;;;;;;;16.30;53.30;101150.16;1636602;86;21685;-79
2022/07/07 00:17:05;;;;;;;2.87;1.22;;;;;;;16.31;53.34;101149.27;1642719;86;21398;-79
2022/07/07 00:19:31;;;;;;;2.00;0.90;;;;;;;16.28;53.43;101144.14;1665513;86;21673;-79
2022/07/07 00:21:57;;;;;;;3.67;0.70;;;;;;;16.29;53.50;101140.62;1665224;86;28117;-79
2022/07/07 00:24:24;;;;;;;2.33;0.90;;;;;;;16.29;53.59;101140.17;1650841;86;21515;-79
2022/07/07 00:26:50;;;;;;;1.10;0.88;;;;;;;16.27;53.64;101146.34;1659834;86;20919;-79
2022/07/07 00:29:16;;;;;;;2.50;0.80;;;;;;;16.27;53.71;101147.65;1640977;86;20904;-79
2022/07/07 00:31:45;;;;;;;2.47;1.00;;;;;;;16.27;53.77;101145.89;1636850;87;21122;-79
2022/07/07 00:34:11;;;;;;;1.17;0.73;;;;;;;16.27;53.85;101152.42;1642384;86;21154;-79
2022/07/07 00:36:39;;;;;;;1.57;0.90;;;;;;;16.25;53.92;101147.70;1637126;86;21621;-79
2022/07/07 00:39:06;;;;;;;1.10;1.00;;;;;;;16.25;53.96;101149.00;1637964;86;20967;-79
2022/07/07 00:41:32;;;;;;;1.87;0.95;;;;;;;16.23;54.05;101148.19;1639760;84;25714;-79
2022/07/07 00:44:00;;;;;;;4.47;0.90;;;;;;;16.22;54.06;101141.27;1637490;86;21041;-79
2022/07/07 00:46:31;;;;;;;3.35;1.42;;;;;;;16.21;54.16;101143.02;1653383;86;21029;-80
2022/07/07 00:48:57;;;;;;;2.70;0.98;;;;;;;16.20;54.21;101135.23;1650399;86;20931;-80
2022/07/07 00:51:23;;;;;;;4.83;1.10;;;;;;;16.20;54.24;101140.01;1638574;86;20875;-80
2022/07/07 00:53:49;;;;;;;2.93;1.17;;;;;;;16.19;54.32;101134.84;1638607;87;20935;-80
2022/07/07 00:56:15;;;;;;;3.17;1.13;;;;;;;16.17;54.37;101128.36;1638561;87;20938;-80
2022/07/07 00:58:41;;;;;;;3.23;0.83;;;;;;;16.14;54.41;101131.52;1649569;86;20903;-80
2022/07/07 01:01:07;;;;;;;1.83;0.87;;;;;;;16.15;54.46;101122.34;1659584;86;21601;-80
2022/07/07 01:03:34;;;;;;;2.10;1.10;;;;;;;16.14;54.54;101125.84;1664472;86;21077;-79
2022/07/07 01:06:02;;;;;;;4.75;1.02;;;;;;;16.16;54.57;101121.88;1664106;86;21090;-79
2022/07/07 01:08:29;;;;;;;4.50;1.27;;;;;;;16.16;54.59;101117.97;1640475;86;21299;-80
2022/07/07 01:11:14;;;;;;;3.07;0.97;;;;;;;16.16;54.65;101120.58;1670990;84;21078;-80
2022/07/07 01:13:40;;;;;;;4.30;1.07;;;;;;;16.13;54.72;101116.31;1681073;84;21429;-79
2022/07/07 01:16:06;;;;;;;2.23;1.00;;;;;;;16.12;54.74;101111.14;1644856;86;21018;-79
2022/07/07 01:18:32;;;;;;;2.20;1.00;;;;;;;16.11;54.77;101102.49;1636540;86;21592;-79
2022/07/07 01:21:03;;;;;;;2.13;0.73;;;;;;;16.09;54.83;101110.81;1648720;86;21608;-79
2022/07/07 01:23:29;;;;;;;3.52;0.80;;;;;;;16.10;54.90;101102.53;1636669;86;21069;-79
2022/07/07 01:25:55;;;;;;;3.10;1.37;;;;;;;16.09;54.95;101099.08;1636761;86;21310;-79
2022/07/07 01:28:20;;;;;;;1.73;0.60;;;;;;;16.10;55.00;101103.84;1636885;87;25733;-79
2022/07/07 01:30:46;;;;;;;5.10;0.70;;;;;;;16.09;55.03;101105.59;1656469;86;21026;-79
2022/07/07 01:33:12;;;;;;;1.22;0.98;;;;;;;16.07;55.09;101102.18;1638334;86;21141;-79
2022/07/07 01:35:38;;;;;;;5.10;0.70;;;;;;;16.07;55.14;101098.27;1621743;86;20992;-79
2022/07/07 01:38:04;;;;;;;3.57;0.70;;;;;;;16.05;55.17;101092.24;1655801;86;21077;-79
2022/07/07 01:40:30;;;;;;;2.93;0.90;;;;;;;16.04;55.22;101094.90;1633569;86;21680;-79
2022/07/07 01:42:56;;;;;;;3.07;1.00;;;;;;;16.02;55.28;101094.09;1672299;85;21484;-79
2022/07/07 01:45:21;;;;;;;2.40;0.97;;;;;;;15.98;55.32;101098.55;1660186;83;21694;-79
2022/07/07 01:47:49;;;;;;;1.75;0.70;;;;;;;15.96;55.39;101094.28;1620224;87;21061;-80
2022/07/07 01:50:15;;;;;;;2.75;1.00;;;;;;;15.93;55.44;101093.06;1639864;87;20919;-80
2022/07/07 01:52:41;;;;;;;4.03;0.93;;;;;;;15.91;55.53;101093.56;1645097;85;20939;-80
2022/07/07 01:55:08;;;;;;;1.33;0.80;;;;;;;15.88;55.59;101088.84;1633287;87;20988;-80
2022/07/07 01:57:34;;;;;;;2.77;0.90;;;;;;;15.88;55.64;101085.38;1622071;87;21393;-80
2022/07/07 02:00:00;;;;;;;1.47;1.00;;;;;;;15.88;55.71;101082.77;1624481;87;20959;-80
2022/07/07 02:02:26;;;;;;;2.87;1.35;;;;;;;15.88;55.75;101082.77;1622090;87;21417;-80
2022/07/07 02:04:52;;;;;;;1.87;1.03;;;;;;;15.87;55.81;101071.94;1624343;87;21645;-80
2022/07/07 02:07:19;;;;;;;2.50;1.00;;;;;;;15.87;55.83;101082.38;1622159;87;20924;-80
2022/07/07 02:09:45;;;;;;;2.02;0.80;;;;;;;15.84;55.87;101078.10;1622269;87;21000;-80
2022/07/07 02:12:18;;;;;;;2.80;0.72;;;;;;;15.80;55.94;101078.23;1640145;85;20893;-80
2022/07/07 02:14:44;;;;;;;1.32;0.90;;;;;;;15.78;56.00;101070.46;1648670;86;20940;-80
2022/07/07 02:17:10;;;;;;;1.70;0.73;;;;;;;15.75;56.04;101069.25;1646626;86;20916;-80
2022/07/07 02:19:36;;;;;;;1.43;0.70;;;;;;;15.72;56.09;101068.03;1632684;86;20932;-80
2022/07/07 02:22:02;;;;;;;1.40;0.70;;;;;;;15.70;56.14;101065.07;1622347;87;20963;-80
2022/07/07 02:24:30;;;;;;;1.55;0.80;;;;;;;15.64;56.19;101066.55;1631190;87;20940;-80
2022/07/07 02:26:56;;;;;;;1.47;0.63;;;;;;;15.62;56.30;101063.14;1624187;86;21706;-80
2022/07/07 02:29:22;;;;;;;1.13;0.73;;;;;;;15.61;56.29;101061.43;1622261;87;20869;-80
2022/07/07 02:31:48;;;;;;;1.92;0.90;;;;;;;15.56;56.34;101058.95;1630080;87;20935;-80
2022/07/07 02:34:15;;;;;;;1.50;0.90;;;;;;;15.54;56.42;101062.91;1648751;86;20897;-80
2022/07/07 02:36:41;;;;;;;1.05;0.80;;;;;;;15.51;56.47;101062.15;1648606;86;20893;-80
2022/07/07 02:39:07;;;;;;;2.10;0.80;;;;;;;15.49;56.51;101059.58;1653397;86;21447;-79
2022/07/07 02:41:33;;;;;;;3.80;1.37;;;;;;;15.47;56.53;101060.53;1658937;84;21580;-80
2022/07/07 02:43:59;;;;;;;1.30;0.90;;;;;;;15.42;56.60;101060.66;1669819;84;20967;-80
2022/07/07 02:46:25;;;;;;;3.23;1.00;;;;;;;15.40;56.63;101062.91;1636081;86;20942;-80
2022/07/07 02:48:51;;;;;;;1.90;0.93;;;;;;;15.37;56.67;101062.55;1636540;87;21520;-80
2022/07/07 02:51:17;;;;;;;3.30;0.90;;;;;;;15.33;56.72;101062.22;1637785;86;21014;-80
2022/07/07 02:53:43;;;;;;;0.80;0.60;;;;;;;15.32;56.78;101054.45;1660907;86;20924;-80
2022/07/07 02:56:09;;;;;;;1.40;0.70;;;;;;;15.28;56.78;101056.73;1663376;86;27054;-80
2022/07/07 02:58:35;;;;;;;7.10;1.00;;;;;;;15.20;56.88;101058.25;1658545;86;21453;-80
2022/07/07 03:01:01;;;;;;;2.90;1.00;;;;;;;15.15;56.94;101058.38;1636628;86;21718;-80
2022/07/07 03:03:27;;;;;;;3.23;1.03;;;;;;;15.13;57.03;101058.88;1639470;86;20999;-80
2022/07/07 03:05:53;;;;;;;1.17;0.75;;;;;;;15.12;57.06;101058.91;1636812;86;21090;-80
2022/07/07 03:08:19;;;;;;;1.27;0.80;;;;;;;15.10;57.13;101065.47;1636940;87;21494;-80
2022/07/07 03:10:45;;;;;;;2.53;0.90;;;;;;;15.09;57.15;101060.30;1641884;84;21138;-80
2022/07/07 03:13:11;;;;;;;3.37;1.23;;;;;;;15.06;57.20;101056.51;1641322;83;21130;-80
2022/07/07 03:15:43;;;;;;;2.22;0.98;;;;;;;15.01;57.30;101052.72;1663563;86;21062;-80
2022/07/07 03:18:09;;;;;;;5.43;0.93;;;;;;;15.00;57.37;101052.32;1663830;86;21804;-80
2022/07/07 03:20:35;;;;;;;2.60;1.00;;;;;;;14.99;57.40;101051.06;1640198;86;21530;-80
2022/07/07 03:23:14;;;;;;;3.52;1.05;;;;;;;14.97;57.48;101051.09;1651668;86;21582;-80
2022/07/07 03:25:40;;;;;;;2.87;0.80;;;;;;;14.96;57.56;101048.53;1664000;86;21625;-80
2022/07/07 03:28:06;;;;;;;1.43;1.00;;;;;;;14.95;57.58;101043.78;1663980;86;20928;-80
2022/07/07 03:30:32;;;;;;;5.43;1.33;;;;;;;14.94;57.68;101044.67;1657963;86;25338;-80
2022/07/07 03:32:58;;;;;;;1.57;1.05;;;;;;;14.93;57.73;101042.11;1639912;86;21093;-80
2022/07/07 03:35:24;;;;;;;3.43;0.97;;;;;;;14.89;57.79;101038.28;1636650;87;21566;-80
2022/07/07 03:37:50;;;;;;;1.77;1.10;;;;;;;14.90;57.86;101041.73;1636157;87;21129;-80
2022/07/07 03:40:16;;;;;;;2.80;1.10;;;;;;;14.89;57.92;101046.55;1627843;86;21111;-80
2022/07/07 03:42:42;;;;;;;2.80;1.30;;;;;;;14.76;58.23;101025.19;1630883;85;20913;-80
2022/07/07 03:45:12;;;;;;;5.28;0.93;;;;;;;14.86;58.06;101042.27;1627269;87;21556;-80
2022/07/07 03:47:38;;;;;;;1.42;0.82;;;;;;;14.86;58.11;101042.27;1628975;87;20973;-80
2022/07/07 03:50:05;;;;;;;4.37;1.02;;;;;;;14.87;58.18;101046.58;1629634;86;20953;-80
2022/07/07 03:52:38;;;;;;;4.80;0.98;;;;;;;14.89;58.21;101039.59;1629104;86;20957;-80
2022/07/07 03:55:05;;;;;;;2.85;1.00;;;;;;;14.89;58.27;101039.59;1629401;88;21297;-80
2022/07/07 03:57:31;;;;;;;2.05;1.00;;;;;;;14.90;58.34;101037.39;1629197;88;20945;-80
2022/07/07 04:00:03;;;;;;;2.92;1.07;;;;;;;14.91;58.38;101035.64;1648467;86;20886;-80
2022/07/07 04:02:29;;;;;;;4.75;0.93;;;;;;;14.91;58.43;101034.34;1656102;85;20973;-80
2022/07/07 04:04:55;;;;;;;1.55;1.05;;;;;;;14.93;58.48;101030.39;1656182;85;20953;-80
2022/07/07 04:07:23;;;;;;;4.60;1.20;;;;;;;14.92;58.59;101029.53;1633540;86;20930;-80
2022/07/07 04:09:49;;;;;;;1.32;0.90;;;;;;;14.95;58.65;101030.75;1629397;86;20918;-80
2022/07/07 04:12:15;;;;;;;3.00;1.47;;;;;;;14.99;58.71;101031.08;1664763;85;20902;-80
2022/07/07 04:14:42;;;;;;;2.17;1.30;;;;;;;15.07;58.77;101022.61;1681566;84;21319;-80
2022/07/07 04:17:10;;;;;;;2.00;0.90;;;;;;;15.12;58.78;101022.00;1643523;86;21092;-80
2022/07/07 04:19:36;;;;;;;4.33;1.20;;;;;;;15.21;58.89;101016.97;1655352;85;21111;-80
2022/07/07 04:22:04;;;;;;;5.28;1.20;;;;;;;15.34;58.89;101023.99;1654096;86;21056;-80
2022/07/07 04:24:30;;;;;;;2.72;1.30;;;;;;;15.47;58.99;101016.22;1629897;86;21040;-80
2022/07/07 04:26:56;;;;;;;2.67;1.03;;;;;;;15.62;59.01;101009.25;1627814;86;20925;-80
2022/07/07 04:29:23;;;;;;;4.83;1.00;;;;;;;15.77;59.02;101014.00;1632737;86;21161;-80
2022/07/07 04:31:48;;;;;;;2.47;0.90;;;;;;;15.93;59.05;101007.85;1654504;86;20985;-80
2022/07/07 04:34:14;;;;;;;1.77;1.17;;;;;;;16.10;59.06;101008.62;1654634;85;20874;-80
2022/07/07 04:36:41;;;;;;;2.97;0.90;;;;;;;16.28;59.08;101005.38;1654342;86;20878;-80
2022/07/07 04:39:08;;;;;;;2.35;1.00;;;;;;;16.44;59.04;101007.02;1639152;86;26996;-80
2022/07/07 04:41:35;;;;;;;4.47;1.40;;;;;;;16.53;58.92;101002.80;1650648;85;20914;-80
2022/07/07 04:44:01;;;;;;;1.70;1.12;;;;;;;16.61;58.97;101002.53;1682687;84;21013;-80
2022/07/07 04:46:27;;;;;;;3.67;1.23;;;;;;;16.66;58.94;101000.61;1682423;84;21040;-80
2022/07/07 04:49:00;;;;;;;1.32;1.00;;;;;;;16.71;58.94;101006.53;1651266;84;21588;-80
2022/07/07 04:51:26;;;;;;;7.45;0.90;;;;;;;16.76;58.92;101004.61;1633020;86;26981;-80
2022/07/07 04:53:52;;;;;;;4.03;0.93;;;;;;;16.78;58.89;101001.49;1629310;86;21060;-80
2022/07/07 04:56:28;;;;;;;5.12;1.12;;;;;;;16.77;58.87;100998.03;1627731;86;21465;-80
2022/07/07 04:58:54;;;;;;;1.63;1.20;;;;;;;16.79;58.92;100997.97;1627814;87;21668;-80
2022/07/07 05:01:20;;;;;;;2.23;1.27;;;;;;;16.78;58.86;100995.81;1627817;87;21056;-80
2022/07/07 05:03:46;;;;;;;1.67;1.40;;;;;;;16.75;58.79;100993.77;1630440;86;20988;-80
2022/07/07 05:06:13;;;;;;;3.33;1.47;;;;;;;16.72;58.78;100989.95;1629858;85;20933;-80
2022/07/07 05:08:40;;;;;;;;;;;;;;;16.70;58.76;100989.16;1629998;87;21060;-80
2022/07/07 05:11:06;;;;;;;2.67;1.40;;;;;;;16.66;58.75;100994.94;1638334;85;20185;-80
2022/07/07 05:13:32;;;;;;;3.42;1.20;;;;;;;16.65;58.74;100988.47;1652245;84;21065;-80
2022/07/07 05:15:59;;;;;;;1.52;1.10;;;;;;;16.66;58.78;100986.25;1628944;86;21439;-80
2022/07/07 05:18:25;;;;;;;2.75;1.17;;;;;;;16.65;58.77;100984.09;1629429;87;21439;-80
2022/07/07 05:20:54;;;;;;;3.70;1.35;;;;;;;16.68;58.80;100988.36;1629133;86;20917;-80
2022/07/07 05:23:20;;;;;;;4.97;1.27;;;;;;;16.73;58.80;100987.75;1651862;86;20957;-80
2022/07/07 05:25:46;;;;;;;2.17;0.90;;;;;;;16.78;58.76;100978.84;1654864;85;20950;-80
2022/07/07 05:28:15;;;;;;;2.58;1.05;;;;;;;16.82;58.73;100973.05;1654565;85;20883;-80
2022/07/07 05:30:41;;;;;;;7.80;1.03;;;;;;;16.88;58.74;100969.77;1642452;86;20937;-80
2022/07/07 05:33:07;;;;;;;1.97;0.90;;;;;;;16.96;58.73;100972.55;1629465;88;21015;-80
2022/07/07 05:35:37;;;;;;;3.05;0.88;;;;;;;17.04;58.68;100970.52;1629457;86;21371;-80
2022/07/07 05:38:04;;;;;;;1.07;0.78;;;;;;;17.10;58.67;100971.14;1629461;86;20913;-80
2022/07/07 05:40:30;;;;;;;2.95;0.90;;;;;;;17.17;58.61;100978.27;1639015;85;26241;-80
2022/07/07 05:42:56;;;;;;;6.80;0.98;;;;;;;17.24;58.63;100974.52;1640936;85;20953;-80
2022/07/07 05:45:22;;;;;;;1.17;0.70;;;;;;;17.32;58.57;100975.08;1605525;88;20899;-80
2022/07/07 05:47:48;;;;;;;2.80;0.73;;;;;;;17.44;58.54;100978.98;1649576;84;20959;-80
2022/07/07 05:50:14;;;;;;;2.23;0.77;;;;;;;17.52;58.49;100979.09;1645138;84;21057;-80
2022/07/07 05:52:40;;;;;;;2.65;0.70;;;;;;;17.61;58.44;100976.58;1639667;84;21563;-80
2022/07/07 05:55:08;;;;;;;4.80;1.00;;;;;;;17.71;58.38;100975.76;1638557;87;21803;-80
2022/07/07 05:57:34;;;;;;;2.15;0.90;;;;;;;17.82;58.35;100981.42;1631814;86;20905;-80
2022/07/07 06:00:00;;;;;;;0.78;0.70;;;;;;;18.00;58.36;100983.75;1648574;86;20958;-80
2022/07/07 06:02:26;;;;;;;1.93;0.90;;;;;;;18.16;58.29;100980.44;1644732;85;20905;-80
2022/07/07 06:04:52;;;;;;;3.97;0.93;;;;;;;18.34;58.17;100977.94;1649674;85;21021;-80
2022/07/07 06:07:20;;;;;;;3.77;1.05;;;;;;;18.48;58.11;100985.61;1628539;85;22258;-80
2022/07/07 06:09:46;;;;;;;5.30;0.80;;;;;;;18.58;58.01;100988.69;1627886;88;21044;-81
2022/07/07 06:12:12;;;;;;;2.20;1.00;;;;;;;18.68;57.95;100991.79;1638075;85;21477;-81
2022/07/07 06:14:41;;;;;;;6.53;1.10;;;;;;;18.76;57.88;100987.03;1627599;86;21543;-81
2022/07/07 06:17:07;;;;;;;5.13;1.30;;;;;;;18.84;57.84;100979.69;1627850;87;20988;-81
2022/07/07 06:19:33;;;;;;;8.83;1.00;;;;;;;18.95;57.80;100977.45;1637803;84;21004;-81
2022/07/07 06:22:03;;;;;;;4.53;0.68;;;;;;;19.07;57.67;100971.66;1660401;84;21466;-81
2022/07/07 06:24:30;;;;;;;6.95;1.12;;;;;;;19.18;57.50;100972.47;1640780;85;498654;-81
2022/07/07 06:26:56;;;;;;;6.43;0.90;;;;;;;19.22;57.38;100959.61;1620856;87;21501;-81
2022/07/07 06:29:22;;;;;;;2.40;0.70;;;;;;;19.25;57.31;100965.14;1630237;87;21530;-81
2022/07/07 06:31:48;;;;;;;3.43;0.50;;;;;;;19.30;57.14;100953.52;1647417;85;22828;-81
2022/07/07 06:34:14;;;;;;;5.90;1.00;;;;;;;19.45;57.20;100961.98;1642739;85;22335;-81
2022/07/07 06:36:40;;;;;;;2.45;0.95;;;;;;;19.68;56.96;100958.77;1620886;87;21598;-81
2022/07/07 06:39:07;;;;;;;6.47;0.90;;;;;;;19.98;56.71;100965.12;1621202;86;21684;-81
2022/07/07 06:41:37;;;;;;;1.55;0.88;;;;;;;20.19;56.69;100961.89;1638083;86;21541;-81
2022/07/07 06:44:04;;;;;;;3.50;1.05;;;;;;;20.39;56.56;100958.25;1643559;86;21486;-81
2022/07/07 06:46:31;;;;;;;3.80;0.93;;;;;;;20.54;56.41;100958.78;1624110;86;21462;-81
2022/07/07 06:48:58;;;;;;;1.42;0.90;;;;;;;20.67;56.26;100949.33;1628515;86;21455;-81
2022/07/07 06:51:24;;;;;;;2.42;0.80;;;;;;;20.82;55.90;100959.01;1624163;86;20986;-81
2022/07/07 06:53:50;;;;;;;1.77;0.90;;;;;;;20.89;55.70;100956.06;1624390;87;21726;-81
2022/07/07 06:56:16;;;;;;;5.83;1.07;;;;;;;21.06;55.73;100959.48;1624186;88;21412;-81
2022/07/07 06:58:42;;;;;;;2.73;0.77;;;;;;;21.22;55.49;100948.16;1624148;86;21511;-81
2022/07/07 07:01:11;;;;;;;4.25;0.80;;;;;;;21.65;55.46;100953.17;1641742;85;22112;-81
2022/07/07 07:03:37;;;;;;;5.03;0.77;;;;;;;22.12;55.26;100947.34;1650169;86;21443;-81
2022/07/07 07:06:03;;;;;;;3.50;0.83;;;;;;;22.55;55.05;100952.67;1635036;85;21407;-81
2022/07/07 07:08:31;;;;;;;4.45;0.90;;;;;;;23.05;54.77;100949.57;1624246;86;21920;-81
2022/07/07 07:10:58;;;;;;;2.70;1.15;;;;;;;23.61;54.59;100944.27;1631158;86;21562;-81
2022/07/07 07:13:24;;;;;;;6.45;1.77;;;;;;;24.04;54.07;100943.11;1628426;86;21407;-81
2022/07/07 07:16:00;;;;;;;2.60;1.00;;;;;;;24.36;53.45;100942.30;1624398;88;21388;-82
2022/07/07 07:18:26;;;;;;;3.57;0.80;;;;;;;24.64;53.39;100938.56;1636205;86;21415;-82
2022/07/07 07:20:52;;;;;;;3.10;1.45;;;;;;;24.89;53.21;100939.50;1624270;87;21566;-82
2022/07/07 07:23:18;;;;;;;1.77;0.85;;;;;;;25.22;52.76;100940.23;1625295;86;21681;-82
2022/07/07 07:25:44;;;;;;;2.65;1.22;;;;;;;25.49;52.54;100946.14;1624214;86;21435;-82
2022/07/07 07:28:11;;;;;;;4.37;0.87;;;;;;;25.88;51.45;100938.89;1624342;87;21772;-82
2022/07/07 07:30:37;;;;;;;5.08;0.90;;;;;;;25.88;51.45;100938.89;1624168;86;21412;-82
2022/07/07 07:33:03;;;;;;;4.50;1.45;;;;;;;25.81;50.96;100938.98;1625289;87;21419;-82
2022/07/07 07:35:29;;;;;;;4.00;1.67;;;;;;;25.60;49.05;100946.20;1624335;88;21383;-82
2022/07/07 07:37:55;;;;;;;7.80;1.50;;;;;;;25.36;50.61;100942.25;1624195;87;21054;-82
2022/07/07 07:40:21;;;;;;;5.92;1.50;;;;;;;25.34;50.22;100951.26;1646785;86;21384;-82
2022/07/07 07:42:48;;;;;;;4.72;1.12;;;;;;;25.24;49.99;100938.31;1650544;86;21425;-82
2022/07/07 07:45:21;;;;;;;4.15;1.07;;;;;;;25.02;49.61;100948.27;1642246;85;21405;-82
2022/07/07 07:47:48;;;;;;;1.92;0.80;;;;;;;24.79;49.05;100945.06;1623701;86;21435;-81
2022/07/07 07:50:20;;;;;;;1.35;1.00;;;;;;;24.44;49.10;100948.34;1624596;86;20929;-81
2022/07/07 07:52:48;;;;;;;3.02;1.22;;;;;;;24.18;49.04;100946.15;1623980;86;21459;-81
2022/07/07 07:55:17;;;;;;;3.98;1.20;;;;;;;23.98;49.00;100940.03;1623891;87;21467;-81
2022/07/07 07:57:49;;;;;;;2.45;1.55;;;;;;;23.71;48.67;100940.09;1643586;86;20867;-81
2022/07/07 08:00:19;;;;;;;5.28;1.20;;;;;;;23.41;48.60;100946.84;1650534;86;21357;-81
2022/07/07 08:02:47;;;;;;;2.27;1.20;;;;;;;23.02;48.37;100944.48;1650602;86;21415;-81
2022/07/07 08:05:14;;;;;;;6.22;1.12;;;;;;;22.82;48.36;100944.91;1650636;86;20914;-81
2022/07/07 08:07:42;;;;;;;3.12;1.00;;;;;;;22.66;48.12;100944.12;1630896;86;21422;-80
2022/07/07 08:10:14;;;;;;;2.27;0.98;;;;;;;22.48;48.08;100949.18;1624025;88;21733;-80
2022/07/07 08:12:43;;;;;;;2.58;0.95;;;;;;;22.36;47.93;100945.02;1646525;86;21366;-80
2022/07/07 08:15:12;;;;;;;3.62;1.22;;;;;;;22.50;48.14;100945.98;1636468;86;20955;-80
2022/07/07 08:17:38;;;;;;;3.50;1.20;;;;;;;22.64;47.96;100933.66;1624028;86;20962;-80
2022/07/07 08:20:06;;;;;;;2.70;1.00;;;;;;;22.72;47.90;100931.41;1624227;87;20903;-80
2022/07/07 08:22:32;;;;;;;5.90;1.30;;;;;;;22.87;47.72;100924.38;1630948;86;20959;-80
2022/07/07 08:24:59;;;;;;;6.37;1.12;;;;;;;23.03;47.71;100929.03;1650797;86;20887;-80
2022/07/07 08:27:31;;;;;;;3.17;0.75;;;;;;;23.15;47.65;100934.02;1637171;83;138306;-80
2022/07/07 08:29:58;;;;;;;4.22;1.07;;;;;;;23.25;47.52;100941.72;1633521;87;21296;-80
2022/07/07 08:32:24;;;;;;;3.50;1.00;;;;;;;23.28;47.10;100932.77;1612021;87;20957;-80
2022/07/07 08:34:51;;;;;;;3.02;0.75;;;;;;;23.24;47.15;100936.07;1632056;87;21387;-80
2022/07/07 08:37:17;;;;;;;3.83;1.00;;;;;;;23.21;46.92;100934.95;1633657;87;20954;-80
2022/07/07 08:39:49;;;;;;;1.55;0.82;;;;;;;23.17;47.04;100936.08;1630306;86;20934;-80
2022/07/07 08:42:15;;;;;;;6.60;1.17;;;;;;;23.29;47.06;100931.82;1629503;87;21328;-80
2022/07/07 08:44:41;;;;;;;6.90;1.20;;;;;;;23.48;47.06;100930.14;1638226;85;20941;-81
2022/07/07 08:47:07;;;;;;;4.28;0.80;;;;;;;23.75;46.81;100933.19;1635581;87;20866;-81
2022/07/07 08:49:33;;;;;;;2.37;0.90;;;;;;;23.86;46.43;100928.98;1623510;87;21411;-81
2022/07/07 08:52:00;;;;;;;1.70;0.80;;;;;;;23.89;46.46;100936.23;1612088;89;20970;-81
2022/07/07 08:54:27;;;;;;;2.30;0.80;;;;;;;23.90;45.95;100939.25;1612068;88;20925;-81
2022/07/07 08:56:55;;;;;;;6.50;1.47;;;;;;;23.74;45.93;100937.24;1614381;87;20997;-81
2022/07/07 08:59:22;;;;;;;2.75;0.90;;;;;;;23.57;46.06;100935.70;1622329;87;21443;-81
2022/07/07 09:02:03;;;;;;;3.42;0.80;;;;;;;23.50;45.94;100933.53;1638468;87;20965;-81
2022/07/07 09:04:29;;;;;;;3.80;0.85;;;;;;;23.48;46.02;100932.78;1638276;87;21004;-81
2022/07/07 09:06:59;;;;;;;3.50;0.90;;;;;;;23.49;45.95;100927.88;1628714;87;20925;-81
2022/07/07 09:09:39;;;;;;;2.47;0.70;;;;;;;23.44;45.95;100929.02;1636811;87;20906;-81
2022/07/07 09:12:08;;;;;;;1.40;0.65;;;;;;;23.34;45.74;100928.42;1638326;87;20921;-81
2022/07/07 09:14:39;;;;;;;2.25;0.60;;;;;;;23.05;45.62;100923.66;1619951;85;20944;-81
2022/07/07 09:17:16;;;;;;;1.72;0.80;;;;;;;22.75;45.37;100935.64;1612091;87;20977;-81
2022/07/07 09:19:44;;;;;;;3.72;0.72;;;;;;;22.46;45.48;100929.51;1618619;87;20962;-81
2022/07/07 09:22:12;;;;;;;1.50;0.42;;;;;;;22.30;45.54;100921.70;1626744;87;20929;-81
2022/07/07 09:24:55;;;;;;;2.15;0.62;;;;;;;22.19;45.53;100916.23;1638361;86;20961;-81
2022/07/07 09:27:30;;;;;;;3.20;0.80;;;;;;;22.12;45.44;100928.91;1636046;87;20937;-81
2022/07/07 09:29:56;;;;;;;1.75;0.57;;;;;;;22.12;45.45;100913.58;1638447;87;20933;-81
2022/07/07 09:32:22;;;;;;;1.97;0.60;;;;;;;22.17;45.36;100915.94;1638637;87;20917;-81
2022/07/07 09:34:48;;;;;;;3.15;0.57;;;;;;;22.15;45.29;100929.67;1638502;87;21044;-81
2022/07/07 09:40:01;;;;;;;1.90;0.50;;;;;;;22.21;45.16;100917.45;1637026;86;20937;-81
2022/07/07 09:42:32;;;;;;;1.95;0.62;;;;;;;22.29;45.25;100920.48;1618395;87;21006;-81
2022/07/07 09:45:03;;;;;;;3.25;0.70;;;;;;;22.28;45.04;100921.42;1603381;88;20945;-81
2022/07/07 09:47:35;;;;;;;1.98;0.45;;;;;;;22.25;45.21;100925.08;1602942;88;20993;-81
2022/07/07 09:50:06;;;;;;;4.75;1.00;;;;;;;22.24;45.18;100918.59;1603253;88;20930;-81
2022/07/07 09:52:36;;;;;;;1.77;0.70;;;;;;;22.25;45.24;100928.19;1604581;88;21105;-81
2022/07/07 09:55:12;;;;;;;4.17;0.60;;;;;;;22.20;45.15;100921.87;1602310;88;21159;-81
2022/07/07 09:57:40;;;;;;;1.43;0.50;;;;;;;22.09;45.15;100929.56;1601989;88;21069;-81
2022/07/07 10:00:07;;;;;;;3.65;0.70;;;;;;;22.01;45.29;100928.69;1603284;89;21653;-81
2022/07/07 10:02:43;;;;;;;1.75;0.50;;;;;;;22.06;45.31;100932.37;1614161;88;20929;-81
2022/07/07 10:05:09;;;;;;;1.98;0.62;;;;;;;22.09;45.35;100926.45;1603297;88;20926;-81
2022/07/07 10:07:36;;;;;;;2.33;0.70;;;;;;;22.12;45.23;100922.33;1605302;88;21016;-81
2022/07/07 10:10:07;;;;;;;1.40;0.40;;;;;;;22.10;45.29;100928.16;1609868;87;21084;-81
2022/07/07 10:12:37;;;;;;;3.00;0.40;;;;;;;22.07;45.23;100920.43;1623808;87;20985;-81
2022/07/07 10:15:13;;;;;;;2.62;0.60;;;;;;;22.06;45.29;100920.05;1627374;87;20981;-80
2022/07/07 10:17:38;;;;;;;1.60;0.70;;;;;;;22.03;45.19;100927.28;1607285;87;20945;-80
2022/07/07 10:20:06;;;;;;;1.57;0.50;;;;;;;21.97;45.13;100918.39;1625913;88;20999;-80
2022/07/07 10:22:36;;;;;;;5.30;0.70;;;;;;;21.91;45.22;100925.33;1629268;87;20973;-80
2022/07/07 10:25:07;;;;;;;2.67;0.37;;;;;;;21.91;45.23;100939.34;1626721;86;20929;-80
2022/07/07 10:27:33;;;;;;;3.95;0.80;;;;;;;21.88;45.22;100929.45;1603162;87;20945;-80
2022/07/07 10:30:30;;;;;;;6.85;0.82;;;;;;;21.84;45.16;100922.67;1604585;88;20945;-80
2022/07/07 10:32:57;;;;;;;1.80;0.40;;;;;;;21.78;45.14;100926.54;1603297;88;20901;-80
2022/07/07 10:35:27;;;;;;;2.77;0.65;;;;;;;21.76;45.19;100929.73;1605936;88;20906;-80
2022/07/07 10:37:56;;;;;;;2.35;0.55;;;;;;;21.73;45.24;100929.44;1603435;89;20977;-80
2022/07/07 10:40:26;;;;;;;3.70;0.50;;;;;;;21.69;45.21;100924.43;1603422;87;21159;-80
2022/07/07 10:43:27;;;;;;;2.90;0.60;;;;;;;21.66;45.27;100921.51;1605950;88;20958;-80
2022/07/07 10:45:54;;;;;;;3.33;1.10;;;;;;;21.68;45.34;100924.05;1604309;88;20926;-80
2022/07/07 10:48:44;;;;;;;3.92;0.78;;;;;;;21.63;45.37;100925.63;1603487;88;20969;-80
2022/07/07 10:51:25;;;;;;;2.75;0.40;;;;;;;21.55;45.39;100921.27;1603554;88;20951;-80
2022/07/07 10:54:06;;;;;;;1.52;0.57;;;;;;;21.56;45.48;100917.70;1603200;88;20961;-80
2022/07/07 10:56:59;;;;;;;2.00;0.60;;;;;;;21.59;45.53;100924.11;1620801;86;20906;-80
2022/07/07 10:59:29;;;;;;;0.80;0.50;;;;;;;21.64;45.72;100915.95;1624158;88;20949;-80
2022/07/07 11:02:09;;;;;;;5.78;0.90;;;;;;;21.65;45.63;100921.13;1616986;88;26764;-80
2022/07/07 11:04:51;;;;;;;1.20;0.40;;;;;;;21.63;45.75;100935.31;1603280;88;20942;-80
2022/07/07 11:07:19;;;;;;;2.80;0.65;;;;;;;21.60;45.69;100927.59;1601192;89;21518;-80
2022/07/07 11:10:09;;;;;;;4.72;0.57;;;;;;;21.61;45.74;100927.97;1612589;88;21160;-81
2022/07/07 11:12:47;;;;;;;1.57;0.50;;;;;;;21.64;45.76;100933.91;1622681;88;22389;-81
2022/07/07 11:15:25;;;;;;;3.10;0.53;;;;;;;21.63;45.79;100934.84;1631170;85;21081;-80
2022/07/07 11:18:02;;;;;;;8.43;1.30;;;;;;;21.61;45.80;100931.45;1601571;88;21152;-80
2022/07/07 11:20:31;;;;;;;3.70;1.15;;;;;;;21.53;45.79;100923.61;1601872;88;21133;-80
2022/07/07 11:23:10;;;;;;;2.85;0.70;;;;;;;21.44;45.90;100935.03;1601511;88;21104;-80
2022/07/07 11:25:39;;;;;;;2.37;0.78;;;;;;;21.47;45.97;100932.22;1603018;88;20993;-80
2022/07/07 11:28:08;;;;;;;2.87;0.70;;;;;;;21.52;46.06;100935.06;1603098;89;20981;-80
2022/07/07 11:30:36;;;;;;;0.68;0.53;;;;;;;21.55;46.08;100929.63;1614500;88;20978;-80
2022/07/07 11:33:03;;;;;;;3.33;0.70;;;;;;;21.55;46.09;100933.58;1629164;87;20898;-80